To NAV CANADA Home Page Login to a new session Search on AWWS site Feedback and Comments Disclaimer Vers la page française équivalente Tips FAQ What's new on the site To the Forecasts and Observations / NOTAM section To "File a Flight Plan" website Publications and other links Update of the User's profile FIC Telephone Numbers My Weather Data Folder Route Weather Data Regional Weather Data Local Weather Data To the Forecasts and Observations / NOTAM section
Request Generated 08/22/2017 at 01:34:28 UTC . Weather information available at that time is displayed.

METAR/TAF

DEASE LAKE/BC    (show WxCam)

METAR CYDL 220100Z AUTO 06003KT 010V080 9SM -RA FEW039 OVC060 13/12
A2992 RMK SLP138 DENSITY ALT 3000FT=
METAR CYDL 220000Z AUTO 05002KT 9SM -RA SCT048 OVC060 13/13 A2993 RMK
PCPN 1.5MM PAST HR SLP140 DENSITY ALT 3000FT=
METAR CYDL 212300Z AUTO VRB02KT 9SM -RA OVC060 13/12 A2993 RMK SLP140
DENSITY ALT 3000FT=

TAF CYDL 212338Z 2200/2202 20005KT P6SM FEW020 BKN060 OVC080 TEMPO
2200/2202 P6SM -SHRA SCT020 OVC060
RMK FCST BASED ON AUTO OBS. NXT FCST WILL BE ISSUED AT 221545Z=
Your time UTC time
Weather data provided by Environment Canada and NAV CANADA